Time;durP1;ratioP1;P1;durP2;ratioP2;P2;SDS_P1;SDS_P2;PMS_P1;PMS_P2;Temp;Humidity;BMP_temperature;BMP_pressure;BME280_temperature;BME280_humidity;BME280_pressure;Samples;Min_cycle;Max_cycle;Signal;HPM_P1;HPM_P2
2022/09/08 04:37:54;;;;;;;37.42;17.98;;;;;;;7.68;72.70;100513.00;1745850;81;21841;-40
2022/09/08 04:40:21;;;;;;;30.10;17.30;;;;;;;7.80;72.50;100514.48;1712619;83;21010;-39
2022/09/08 04:42:48;;;;;;;38.25;18.85;;;;;;;7.90;72.39;100511.16;1719389;81;21448;-39
2022/09/08 04:45:17;;;;;;;41.68;18.80;;;;;;;8.01;72.19;100508.72;1724554;81;21065;-39
2022/09/08 04:47:44;;;;;;;29.15;18.27;;;;;;;8.08;72.15;100510.55;1730572;81;21074;-49
2022/09/08 04:50:11;;;;;;;34.65;17.95;;;;;;;8.23;72.09;100502.03;1735922;81;21033;-49
2022/09/08 04:52:38;;;;;;;27.80;17.15;;;;;;;8.41;72.04;100501.02;1731212;82;21068;-40
2022/09/08 04:55:05;;;;;;;33.90;18.17;;;;;;;8.57;71.76;100494.66;1726750;81;20997;-41
2022/09/08 04:57:33;;;;;;;35.33;18.57;;;;;;;8.73;71.55;100488.75;1714516;83;21049;-50
2022/09/08 05:00:00;;;;;;;37.40;17.92;;;;;;;8.84;71.48;100483.22;1707859;81;21009;-39
2022/09/08 05:02:29;;;;;;;34.18;17.27;;;;;;;8.94;71.62;100483.76;1714081;81;21025;-49
2022/09/08 05:04:55;;;;;;;36.35;17.80;;;;;;;9.03;71.73;100485.13;1717782;81;20980;-49
2022/09/08 05:07:23;;;;;;;42.60;17.35;;;;;;;9.16;71.71;100487.84;1718692;81;21042;-40
2022/09/08 05:09:49;;;;;;;29.50;16.35;;;;;;;9.28;71.28;100489.29;1717431;81;20959;-49
2022/09/08 05:12:33;;;;;;;33.98;16.30;;;;;;;9.38;70.98;100488.47;1720082;82;21512;-39
2022/09/08 05:15:00;;;;;;;29.02;16.07;;;;;;;9.47;70.78;100484.64;1718086;81;21511;-49
2022/09/08 05:17:29;;;;;;;30.48;16.82;;;;;;;9.57;71.17;100488.20;1720892;81;21021;-50
2022/09/08 05:19:56;;;;;;;29.48;16.40;;;;;;;9.63;71.26;100491.30;1720400;81;21037;-50
2022/09/08 05:22:23;;;;;;;33.50;17.05;;;;;;;9.69;71.38;100486.98;1719482;81;21049;-40
2022/09/08 05:24:50;;;;;;;44.50;19.35;;;;;;;9.77;71.39;100487.02;1720937;82;21621;-40
2022/09/08 05:27:18;;;;;;;34.35;17.85;;;;;;;9.85;71.43;100487.92;1719334;81;21077;-41
2022/09/08 05:29:46;;;;;;;34.03;18.70;;;;;;;9.94;71.35;100486.69;1694820;82;21136;-39
2022/09/08 05:32:13;;;;;;;37.93;19.17;;;;;;;10.02;71.41;100478.44;1719777;81;21400;-39
2022/09/08 05:34:42;;;;;;;37.45;21.07;;;;;;;10.10;71.79;100471.97;1712756;82;21041;-50
2022/09/08 05:37:11;;;;;;;42.70;25.45;;;;;;;10.12;72.10;100480.24;1694667;82;21531;-39
2022/09/08 05:39:38;;;;;;;62.83;29.57;;;;;;;10.17;72.44;100476.34;1702115;82;21005;-40
2022/09/08 05:42:05;;;;;;;64.55;32.17;;;;;;;10.23;72.41;100476.41;1705200;83;21005;-43
2022/09/08 05:44:33;;;;;;;63.58;29.80;;;;;;;10.30;72.24;100473.38;1669893;82;21033;-51
2022/09/08 05:47:01;;;;;;;35.92;18.70;;;;;;;10.35;72.35;100477.76;1708545;81;21017;-43
2022/09/08 05:49:28;;;;;;;28.77;15.93;;;;;;;10.43;72.49;100472.98;1710861;81;21033;-50
2022/09/08 05:51:56;;;;;;;25.72;14.68;;;;;;;10.49;72.61;100474.30;1705866;81;20938;-50
2022/09/08 05:54:23;;;;;;;34.30;14.40;;;;;;;10.55;72.73;100470.00;1703861;81;21032;-52
2022/09/08 05:56:51;;;;;;;26.45;13.53;;;;;;;10.64;72.80;100473.92;1701367;82;21062;-51
2022/09/08 05:59:18;;;;;;;28.02;13.30;;;;;;;10.73;72.67;100482.25;1707195;81;21370;-50
2022/09/08 06:01:45;;;;;;;24.75;13.38;;;;;;;10.83;72.62;100479.19;1704067;82;20977;-53
2022/09/08 06:04:11;;;;;;;25.15;13.08;;;;;;;10.89;72.65;100484.44;1707193;81;21560;-53
2022/09/08 06:06:38;;;;;;;34.70;14.33;;;;;;;10.94;72.72;100481.40;1715792;82;21467;-41
2022/09/08 06:09:07;;;;;;;19.07;11.83;;;;;;;11.02;72.88;100482.30;1706604;82;21390;-49
2022/09/08 06:11:35;;;;;;;30.43;12.45;;;;;;;11.09;73.07;100485.80;1701287;82;21025;-50
2022/09/08 06:14:03;;;;;;;28.27;12.85;;;;;;;11.17;73.27;100487.53;1692960;82;21061;-41
2022/09/08 06:16:37;;;;;;;25.20;13.38;;;;;;;11.28;73.40;100486.67;1696727;82;21864;-39
2022/09/08 06:19:06;;;;;;;29.57;14.23;;;;;;;11.40;73.35;100491.46;1694770;82;21124;-53
2022/09/08 06:21:33;;;;;;;37.67;20.48;;;;;;;11.54;73.46;100498.43;1694461;83;21529;-52
2022/09/08 06:24:03;;;;;;;32.98;16.57;;;;;;;11.64;73.69;100498.42;1687972;82;21092;-42
2022/09/08 06:26:58;;;;;;;35.23;18.07;;;;;;;11.67;73.30;100494.95;1689524;82;21532;-41
2022/09/08 06:29:34;;;;;;;29.37;15.72;;;;;;;11.67;73.24;100506.74;1691717;82;21021;-53
2022/09/08 06:32:31;;;;;;;42.13;21.87;;;;;;;11.64;73.37;100507.59;1688272;82;20977;-53
2022/09/08 06:35:23;;;;;;;43.55;20.17;;;;;;;11.66;73.60;100519.41;1690738;82;21017;-41
2022/09/08 06:38:02;;;;;;;34.78;16.45;;;;;;;11.74;73.78;100513.72;1687647;83;21014;-41
2022/09/08 06:40:45;;;;;;;40.60;17.30;;;;;;;11.83;73.74;100512.84;1694343;82;20963;-41
2022/09/08 06:43:25;;;;;;;29.63;15.00;;;;;;;11.92;74.00;100512.84;1657334;85;21007;-41
2022/09/08 06:45:53;;;;;;;41.75;21.33;;;;;;;12.02;74.09;100514.58;1642605;84;20973;-42
2022/09/08 06:48:33;;;;;;;34.00;19.65;;;;;;;12.11;74.30;100518.91;1654718;83;21458;-42
2022/09/08 06:51:20;;;;;;;34.70;15.95;;;;;;;12.12;74.44;100528.11;1656051;85;21617;-53
2022/09/08 06:54:10;;;;;;;36.23;14.83;;;;;;;12.11;75.12;100525.47;1706104;81;21638;-42
2022/09/08 06:57:03;;;;;;;25.43;14.38;;;;;;;12.11;75.22;100535.52;1709259;82;21049;-42
2022/09/08 07:00:02;;;;;;;25.45;13.53;;;;;;;12.17;75.26;100523.69;1703202;83;21007;-53
2022/09/08 07:02:48;;;;;;;35.15;15.03;;;;;;;12.28;75.40;100520.17;1708695;82;21018;-54
2022/09/08 07:06:05;;;;;;;32.85;14.90;;;;;;;12.38;75.88;100523.20;1706969;83;20986;-42
2022/09/08 07:09:01;;;;;;;26.93;14.63;;;;;;;12.44;76.19;100526.67;1711675;82;21022;-42
2022/09/08 07:11:46;;;;;;;26.33;14.20;;;;;;;12.50;76.74;100524.46;1714423;81;21423;-52
2022/09/08 07:14:41;;;;;;;29.00;14.78;;;;;;;12.56;77.16;100539.31;1711869;82;21865;-41
2022/09/08 07:17:51;;;;;;;30.17;14.07;;;;;;;12.59;77.21;100540.19;1714055;81;21571;-53
2022/09/08 07:20:22;;;;;;;27.70;13.68;;;;;;;12.65;77.45;100541.47;1674353;83;21612;-52
2022/09/08 07:22:56;;;;;;;29.40;14.13;;;;;;;12.72;77.66;100543.17;1707495;81;21589;-42
2022/09/08 07:25:35;;;;;;;28.23;16.05;;;;;;;12.77;78.09;100538.78;1701938;81;21037;-42
2022/09/08 07:28:22;;;;;;;29.95;14.98;;;;;;;12.81;78.69;100538.30;1661164;83;21220;-51
2022/09/08 07:31:02;;;;;;;35.60;13.40;;;;;;;12.89;79.13;100540.47;1705481;81;21400;-52
2022/09/08 07:34:33;;;;;;;23.92;11.78;;;;;;;12.93;79.82;100533.02;1608845;86;21088;-42
2022/09/08 07:37:28;;;;;;;26.52;11.10;;;;;;;12.91;80.21;100536.52;1701963;82;21086;-42
2022/09/08 07:40:03;;;;;;;24.23;12.00;;;;;;;12.89;80.16;100539.59;1707816;83;21035;-41
2022/09/08 07:42:31;;;;;;;20.75;11.30;;;;;;;12.92;80.23;100536.94;1712894;83;21450;-41
2022/09/08 07:45:00;;;;;;;22.82;11.53;;;;;;;12.96;80.53;100536.05;1708580;83;21388;-53
2022/09/08 07:47:59;;;;;;;20.75;11.45;;;;;;;12.99;81.06;100536.91;1715180;83;21054;-41
2022/09/08 07:50:55;;;;;;;21.52;11.30;;;;;;;13.01;81.35;100539.08;1724509;82;21619;-41
2022/09/08 07:54:01;;;;;;;24.70;11.55;;;;;;;13.11;81.56;100541.66;1714649;81;21077;-41
2022/09/08 07:56:39;;;;;;;28.50;12.82;;;;;;;13.20;81.66;100545.08;1713074;83;21398;-52
2022/09/08 07:59:23;;;;;;;35.38;15.98;;;;;;;13.32;81.61;100541.52;1716096;81;21042;-41
2022/09/08 08:02:04;;;;;;;31.20;17.15;;;;;;;13.39;80.91;100541.91;1714506;83;21006;-42
2022/09/08 08:05:26;;;;;;;34.55;16.52;;;;;;;13.52;80.89;100538.31;1715248;82;21002;-41
2022/09/08 08:08:18;;;;;;;28.20;17.00;;;;;;;13.63;80.70;100538.68;1730667;80;21022;-53
2022/09/08 08:11:12;;;;;;;24.02;14.00;;;;;;;13.81;79.96;100526.67;1709644;81;21072;-52
2022/09/08 08:14:05;;;;;;;18.90;10.50;;;;;;;13.95;79.71;100531.34;1717429;80;21413;-43
2022/09/08 08:16:47;;;;;;;18.87;11.20;;;;;;;14.08;79.41;100528.13;1729644;81;20998;-38
2022/09/08 08:19:54;;;;;;;16.85;9.75;;;;;;;14.20;79.26;100525.81;1698566;81;21394;-38
2022/09/08 08:22:40;;;;;;;19.77;10.43;;;;;;;14.33;79.38;100510.33;1700418;81;21774;-37
2022/09/08 08:25:30;;;;;;;21.80;9.83;;;;;;;14.50;79.31;100514.98;1715307;82;21444;-38
2022/09/08 08:28:16;;;;;;;24.33;10.30;;;;;;;14.63;78.92;100507.34;1709656;82;21050;-44
2022/09/08 08:31:36;;;;;;;28.20;10.18;;;;;;;14.71;79.16;100502.41;1723292;81;21364;-38
2022/09/08 08:34:26;;;;;;;18.02;10.85;;;;;;;14.77;78.90;100508.45;1711048;81;21388;-39
2022/09/08 08:36:58;;;;;;;20.75;10.65;;;;;;;14.79;78.81;100513.27;1730871;80;21026;-44
2022/09/08 08:39:29;;;;;;;15.58;9.98;;;;;;;14.81;78.63;100510.16;1640773;85;21124;-39
2022/09/08 08:42:53;;;;;;;18.50;11.10;;;;;;;14.82;78.51;100513.22;1722517;81;21018;-45
2022/09/08 08:45:35;;;;;;;20.40;11.90;;;;;;;14.81;78.48;100512.80;1726610;81;21568;-44
2022/09/08 08:48:34;;;;;;;18.90;10.85;;;;;;;14.80;78.56;100513.70;1670764;84;21129;-43
2022/09/08 08:51:43;;;;;;;22.75;11.65;;;;;;;14.80;78.67;100503.16;1666024;84;21022;-38
2022/09/08 08:54:27;;;;;;;17.15;10.58;;;;;;;14.81;78.59;100498.77;1601602;88;21713;-53
2022/09/08 08:57:14;;;;;;;17.73;9.20;;;;;;;14.82;79.27;100502.68;1596834;88;21118;-53
2022/09/08 09:00:05;;;;;;;20.00;9.45;;;;;;;14.86;79.13;100501.75;1604335;88;21082;-53
2022/09/08 09:03:06;;;;;;;13.25;8.75;;;;;;;14.89;79.00;100502.14;1555985;91;21696;-42
2022/09/08 09:06:09;;;;;;;22.67;10.20;;;;;;;14.93;78.92;100496.39;1548627;89;21672;-42
2022/09/08 09:09:11;;;;;;;23.75;9.50;;;;;;;14.95;78.25;100495.91;1558219;91;21213;-43
2022/09/08 09:11:59;;;;;;;14.28;8.75;;;;;;;14.97;78.49;100488.88;1508015;93;21055;-52
2022/09/08 09:14:55;;;;;;;15.83;9.03;;;;;;;15.04;78.27;100485.25;1505373;94;21118;-52
2022/09/08 09:17:48;;;;;;;13.65;7.67;;;;;;;15.10;78.48;100482.52;1504005;94;21251;-42
2022/09/08 09:20:31;;;;;;;16.37;8.70;;;;;;;15.19;78.04;100483.70;1498184;94;21110;-53
2022/09/08 09:23:27;;;;;;;13.98;8.45;;;;;;;15.29;77.58;100484.41;1504708;93;21185;-53
2022/09/08 09:26:16;;;;;;;15.58;8.20;;;;;;;15.39;77.36;100476.78;1467721;96;21483;-53
2022/09/08 09:29:08;;;;;;;13.85;7.00;;;;;;;15.52;77.15;100473.03;1448601;97;21121;-53
2022/09/08 09:32:16;;;;;;;8.58;5.72;;;;;;;15.61;77.71;100468.92;1483508;95;21309;-42
2022/09/08 09:35:23;;;;;;;13.05;8.70;;;;;;;15.67;77.67;100471.94;1484141;95;21442;-52
2022/09/08 09:38:16;;;;;;;13.18;9.38;;;;;;;15.73;76.98;100476.23;1481990;95;21095;-41
2022/09/08 09:41:06;;;;;;;;;;;;;;;15.75;74.68;100479.25;1475616;95;21097;-40
2022/09/08 09:44:05;;;;;;;7.22;5.17;;;;;;;15.78;73.35;100480.52;1437428;98;20900;-40
2022/09/08 09:46:51;;;;;;;9.40;5.30;;;;;;;15.83;72.68;100476.03;1435183;97;21580;-50
2022/09/08 09:49:53;;;;;;;11.97;5.50;;;;;;;16.02;72.88;100475.68;1471268;96;21713;-51
2022/09/08 09:52:48;;;;;;;10.15;5.87;;;;;;;16.27;72.34;100480.87;1467457;95;21103;-51
2022/09/08 09:56:06;;;;;;;9.88;5.15;;;;;;;16.50;70.90;100477.77;1486135;94;21149;-51
2022/09/08 09:59:04;;;;;;;9.43;4.95;;;;;;;16.69;70.00;100484.37;1487486;94;21248;-50
2022/09/08 10:02:10;;;;;;;8.55;5.70;;;;;;;16.91;68.19;100483.47;1490541;94;21380;-52
2022/09/08 10:05:13;;;;;;;6.85;5.30;;;;;;;17.11;67.21;100488.77;1465558;95;21124;-51
2022/09/08 10:08:13;;;;;;;8.33;5.25;;;;;;;17.26;67.50;100486.60;1449309;97;21544;-51
2022/09/08 10:11:20;;;;;;;13.98;6.50;;;;;;;17.36;65.64;100481.97;1468529;95;21100;-52
2022/09/08 10:14:12;;;;;;;12.98;5.28;;;;;;;17.43;65.33;100490.16;1473170;96;21844;-42
2022/09/08 10:17:16;;;;;;;7.35;4.58;;;;;;;17.54;63.92;100469.59;1477272;95;21387;-41
2022/09/08 10:20:22;;;;;;;19.02;5.35;;;;;;;17.79;62.76;100475.13;1482609;94;21635;-56
2022/09/08 10:23:12;;;;;;;11.57;5.55;;;;;;;18.17;62.91;100468.39;1481273;95;21078;-42
2022/09/08 10:25:54;;;;;;;8.40;4.65;;;;;;;18.66;62.02;100470.44;1495362;91;21133;-41
2022/09/08 10:29:06;;;;;;;9.08;4.75;;;;;;;18.89;60.38;100463.14;1596558;86;21116;-53
2022/09/08 10:31:55;;;;;;;5.42;4.53;;;;;;;18.99;60.32;100461.94;1587538;86;21013;-53
2022/09/08 10:35:04;;;;;;;5.70;4.60;;;;;;;19.28;60.03;100451.70;1632144;86;21607;-42
2022/09/08 10:38:02;;;;;;;7.33;4.03;;;;;;;19.73;57.80;100448.90;1631672;86;21060;-52
2022/09/08 10:40:50;;;;;;;8.28;3.85;;;;;;;20.20;55.88;100447.17;1568843;89;21474;-43
2022/09/08 10:43:51;;;;;;;7.53;4.65;;;;;;;20.63;55.64;100440.24;1573153;89;21094;-53
2022/09/08 10:46:48;;;;;;;13.20;4.35;;;;;;;21.19;54.33;100441.09;1570333;90;21412;-42
2022/09/08 10:49:30;;;;;;;4.58;3.55;;;;;;;21.85;50.66;100440.95;1567501;89;21131;-42
2022/09/08 10:52:23;;;;;;;6.25;3.70;;;;;;;22.26;49.47;100433.78;1570777;89;21595;-43
2022/09/08 10:55:13;;;;;;;;;;;;;;;22.73;47.97;100434.68;1580105;89;21434;-42
2022/09/08 10:57:58;;;;;;;6.17;3.80;;;;;;;23.03;45.87;100436.39;1570531;89;20079;-52
2022/09/08 11:00:25;;;;;;;6.65;3.87;;;;;;;23.16;45.23;100433.49;1569723;89;21947;-53
2022/09/08 11:03:32;;;;;;;8.70;3.83;;;;;;;23.17;45.01;100425.02;1569366;89;21080;-42
2022/09/08 11:06:16;;;;;;;6.37;4.22;;;;;;;22.97;45.51;100418.88;1573556;89;21713;-53
2022/09/08 11:09:22;;;;;;;8.90;4.37;;;;;;;22.78;44.99;100423.33;1569574;89;22027;-53
2022/09/08 11:12:16;;;;;;;6.05;3.67;;;;;;;22.63;46.58;100418.75;1576145;88;21057;-52
2022/09/08 11:14:48;;;;;;;5.80;3.47;;;;;;;22.41;46.13;100413.09;1571858;89;21044;-42
2022/09/08 11:17:26;;;;;;;4.33;3.17;;;;;;;22.12;44.47;100402.45;1608833;83;21720;-43
2022/09/08 11:20:31;;;;;;;5.00;3.27;;;;;;;22.12;44.47;100402.45;1654719;85;21655;-42
2022/09/08 11:23:36;;;;;;;4.00;2.90;;;;;;;21.96;44.31;100398.25;1639632;85;21526;-40
2022/09/08 11:26:53;;;;;;;5.97;3.15;;;;;;;21.81;44.12;100392.78;1580399;89;21117;-40
2022/09/08 11:29:21;;;;;;;8.50;2.67;;;;;;;21.66;45.01;100391.18;1619902;86;21530;-41
2022/09/08 11:32:16;;;;;;;3.92;3.25;;;;;;;21.58;42.16;100399.13;1606513;86;21501;-40
2022/09/08 11:35:03;;;;;;;6.78;3.47;;;;;;;21.38;43.18;100390.66;1623991;86;21623;-40
2022/09/08 11:38:16;;;;;;;7.83;3.25;;;;;;;21.30;44.25;100388.33;1621372;86;21140;-50
2022/09/08 11:41:18;;;;;;;;;;;;;;;21.35;43.92;100385.48;1625104;86;21096;-49
2022/09/08 11:44:09;;;;;;;10.90;3.37;;;;;;;21.31;43.50;100386.06;1626222;86;20119;-52
2022/09/08 11:47:04;;;;;;;8.00;2.85;;;;;;;21.21;44.13;100386.02;1617459;85;21689;-48
2022/09/08 11:50:08;;;;;;;4.55;2.45;;;;;;;21.18;44.34;100387.02;1631974;86;21394;-51
2022/09/08 11:53:04;;;;;;;4.90;3.08;;;;;;;21.14;43.09;100388.07;1628853;86;21081;-45
2022/09/08 11:55:56;;;;;;;3.72;2.65;;;;;;;20.91;43.66;100382.84;1630676;86;21011;-43
2022/09/08 11:58:52;;;;;;;9.25;3.12;;;;;;;20.70;43.52;100385.94;1624952;86;21470;-53
2022/09/08 12:02:01;;;;;;;11.68;3.00;;;;;;;20.49;44.16;100382.33;1614996;86;21040;-42
2022/09/08 12:04:43;;;;;;;5.87;2.77;;;;;;;20.39;45.69;100375.14;1695631;83;21007;-42
2022/09/08 12:07:49;;;;;;;7.10;3.15;;;;;;;20.40;45.19;100369.36;1707690;83;21032;-41
2022/09/08 12:10:50;;;;;;;6.10;2.80;;;;;;;20.44;45.38;100366.53;1704380;83;21632;-42
2022/09/08 12:13:51;;;;;;;7.62;3.55;;;;;;;20.44;46.25;100363.88;1705176;82;21040;-52
2022/09/08 12:16:29;;;;;;;6.17;3.25;;;;;;;20.36;47.51;100365.11;1700780;83;22122;-53
2022/09/08 12:19:36;;;;;;;9.25;3.10;;;;;;;20.28;48.08;100361.41;1712285;81;21520;-54
2022/09/08 12:22:11;;;;;;;4.17;2.95;;;;;;;20.26;48.95;100363.73;1706037;83;21146;-53
2022/09/08 12:24:55;;;;;;;10.72;2.80;;;;;;;20.27;49.54;100351.71;1715505;83;20980;-54
2022/09/08 12:27:56;;;;;;;4.92;2.92;;;;;;;20.36;49.80;100351.36;1678107;83;21511;-54
2022/09/08 12:30:27;;;;;;;5.00;3.00;;;;;;;20.42;49.51;100352.91;1681807;85;21615;-54
2022/09/08 12:33:38;;;;;;;3.22;2.87;;;;;;;20.39;49.74;100349.03;1666667;83;21084;-43
2022/09/08 12:36:30;;;;;;;6.85;3.00;;;;;;;20.44;50.76;100341.75;1672530;85;21652;-44
2022/09/08 12:39:18;;;;;;;6.87;3.10;;;;;;;20.60;50.57;100335.39;1602643;88;21052;-54
2022/09/08 12:42:24;;;;;;;4.17;3.15;;;;;;;20.72;50.43;100332.23;1599214;88;21057;-44
2022/09/08 12:45:15;;;;;;;3.40;2.90;;;;;;;20.93;50.18;100323.80;1598585;89;21118;-54
2022/09/08 12:48:02;;;;;;;7.08;3.30;;;;;;;21.18;49.96;100319.19;1520449;94;21107;-54
2022/09/08 12:51:21;;;;;;;3.90;3.02;;;;;;;21.30;49.52;100319.16;1548382;92;21047;-44
2022/09/08 12:54:18;;;;;;;5.03;3.22;;;;;;;21.36;49.45;100320.68;1542794;92;21051;-43
2022/09/08 12:57:23;;;;;;;4.83;3.15;;;;;;;21.38;49.40;100314.34;1519759;94;21004;-54
2022/09/08 13:00:12;;;;;;;5.40;3.27;;;;;;;21.47;49.38;100309.95;1515437;93;20983;-53
2022/09/08 13:03:04;;;;;;;6.62;3.20;;;;;;;21.64;49.24;100318.52;1518739;93;21721;-55
2022/09/08 13:05:58;;;;;;;5.72;3.12;;;;;;;21.70;48.60;100312.05;1567643;90;21085;-43
2022/09/08 13:08:54;;;;;;;14.53;3.22;;;;;;;21.52;48.87;100316.41;1561313;90;21082;-54
2022/09/08 13:11:46;;;;;;;5.55;3.37;;;;;;;21.32;49.13;100319.94;1559895;92;21050;-54
2022/09/08 13:14:13;;;;;;;4.80;3.15;;;;;;;21.19;49.47;100318.72;1566248;90;21010;-45
2022/09/08 13:17:07;;;;;;;7.20;2.75;;;;;;;21.17;49.63;100316.61;1557362;91;21094;-44
2022/09/08 13:19:55;;;;;;;6.62;3.00;;;;;;;21.15;49.84;100315.78;1505208;94;21161;-53
2022/09/08 13:22:39;;;;;;;3.05;2.52;;;;;;;21.25;50.06;100317.12;1514160;95;21254;-54
2022/09/08 13:25:24;;;;;;;5.83;3.12;;;;;;;21.45;49.47;100312.27;1570229;89;21610;-43
2022/09/08 13:28:19;;;;;;;5.00;3.72;;;;;;;21.58;48.97;100306.81;1615019;87;21781;-54
2022/09/08 13:30:54;;;;;;;13.03;3.75;;;;;;;21.66;48.90;100309.98;1597296;89;21028;-43
2022/09/08 13:33:53;;;;;;;5.30;3.70;;;;;;;21.63;48.81;100307.48;1592174;89;21091;-44
2022/09/08 13:36:55;;;;;;;6.40;3.50;;;;;;;21.63;48.89;100304.81;1615243;89;21104;-54
2022/09/08 13:39:43;;;;;;;4.72;3.30;;;;;;;21.61;48.54;100307.99;1614575;89;21004;-43
2022/09/08 13:42:38;;;;;;;6.83;3.35;;;;;;;21.52;48.67;100300.44;1612348;87;21076;-54
2022/09/08 13:45:36;;;;;;;4.47;3.00;;;;;;;21.51;48.98;100296.92;1609982;89;21415;-44
2022/09/08 13:48:24;;;;;;;7.85;3.62;;;;;;;21.59;48.91;100290.38;1601624;87;21049;-43
2022/09/08 13:51:21;;;;;;;5.03;2.98;;;;;;;21.61;48.59;100288.50;1580554;90;21502;-54
2022/09/08 13:54:27;;;;;;;4.33;2.75;;;;;;;21.61;48.91;100284.50;1582560;89;21059;-54
2022/09/08 13:57:18;;;;;;;5.25;3.40;;;;;;;21.68;48.48;100286.80;1661974;84;21062;-54
2022/09/08 14:00:13;;;;;;;8.05;3.20;;;;;;;21.65;48.53;100284.77;1715690;83;20996;-43
2022/09/08 14:02:57;;;;;;;9.55;3.30;;;;;;;21.62;48.58;100287.56;1733646;81;21618;-54
2022/09/08 14:05:38;;;;;;;4.17;2.72;;;;;;;21.50;48.89;100287.18;1728348;82;21503;-54
2022/09/08 14:08:21;;;;;;;7.60;3.20;;;;;;;21.42;48.90;100288.00;1734155;81;21016;-44
2022/09/08 14:11:27;;;;;;;5.67;2.92;;;;;;;21.37;49.14;100289.14;1733295;82;21023;-44
2022/09/08 14:14:20;;;;;;;4.78;3.27;;;;;;;21.32;49.48;100284.02;1718002;82;21058;-44
2022/09/08 14:16:47;;;;;;;5.78;2.92;;;;;;;21.31;49.49;100284.95;1725407;82;21573;-53
